createdAt,value
2018-03-25T00:01:38.373Z,53.00
2018-03-25T00:06:40.980Z,53.40
2018-03-25T00:11:43.603Z,53.90
2018-03-25T00:16:46.240Z,54.20
2018-03-25T00:21:48.885Z,53.80
2018-03-25T00:26:51.473Z,54.10
2018-03-25T00:31:54.044Z,54.40
2018-03-25T00:36:56.640Z,54.20
2018-03-25T00:41:59.996Z,54.20
2018-03-25T00:47:02.581Z,54.20
2018-03-25T00:52:05.158Z,54.90
2018-03-25T00:57:07.871Z,54.60
2018-03-25T01:02:10.473Z,55.20
2018-03-25T01:07:13.156Z,55.50
2018-03-25T01:12:15.784Z,55.80
2018-03-25T01:17:18.405Z,56.00
2018-03-25T01:22:20.993Z,56.30
2018-03-25T01:27:23.589Z,57.20
2018-03-25T01:32:26.205Z,57.00
2018-03-25T01:37:28.796Z,57.10
2018-03-25T01:42:31.400Z,56.90
2018-03-25T01:47:34.017Z,57.30
2018-03-25T01:52:36.608Z,57.70
2018-03-25T01:57:39.222Z,57.90
2018-03-25T02:02:41.811Z,58.40
2018-03-25T02:07:45.152Z,58.00
2018-03-25T02:12:47.762Z,57.90
2018-03-25T02:17:50.340Z,58.00
2018-03-25T02:22:52.957Z,58.20
2018-03-25T02:27:55.565Z,58.50
2018-03-25T02:32:58.148Z,58.30
2018-03-25T02:38:00.729Z,58.60
2018-03-25T02:43:03.334Z,59.10
2018-03-25T02:48:05.947Z,58.70
2018-03-25T02:53:08.571Z,58.60
2018-03-25T02:58:11.209Z,58.70
2018-03-25T03:03:13.823Z,59.30
2018-03-25T03:08:16.447Z,59.30
2018-03-25T03:13:19.018Z,58.80
2018-03-25T03:18:21.597Z,58.10
2018-03-25T03:23:24.222Z,58.80
2018-03-25T03:28:26.834Z,58.60
2018-03-25T03:33:29.472Z,58.50
2018-03-25T03:38:32.839Z,59.60
2018-03-25T03:43:35.476Z,59.50
2018-03-25T03:48:38.060Z,59.50
2018-03-25T03:53:40.708Z,59.40
2018-03-25T03:58:43.293Z,59.40
2018-03-25T04:03:45.872Z,59.70
2018-03-25T04:08:48.459Z,59.50
2018-03-25T04:13:51.109Z,59.30
2018-03-25T04:18:53.700Z,59.30
2018-03-25T04:23:56.272Z,60.40
2018-03-25T04:28:58.871Z,60.20
2018-03-25T04:34:01.535Z,60.60
2018-03-25T04:39:04.119Z,60.20
2018-03-25T04:44:06.730Z,59.80
2018-03-25T04:49:09.320Z,59.90
2018-03-25T04:54:11.880Z,60.60
2018-03-25T04:59:15.477Z,61.80
2018-03-25T05:04:18.075Z,62.20
2018-03-25T05:09:20.656Z,61.20
2018-03-25T05:14:24.019Z,61.80
2018-03-25T05:19:26.597Z,62.20
2018-03-25T05:24:29.181Z,61.80
2018-03-25T05:29:31.755Z,62.00
2018-03-25T05:34:34.364Z,62.90
2018-03-25T05:39:36.944Z,62.60
2018-03-25T05:44:40.284Z,62.60
2018-03-25T05:49:42.905Z,62.40
2018-03-25T05:54:45.508Z,62.50
2018-03-25T05:59:48.120Z,62.40
2018-03-25T06:04:50.723Z,62.20
2018-03-25T06:09:53.336Z,61.60
2018-03-25T06:14:56.708Z,62.60
2018-03-25T06:19:59.296Z,62.30
2018-03-25T06:25:01.915Z,62.20
2018-03-25T06:30:11.221Z,61.80
2018-03-25T06:35:13.812Z,62.10
2018-03-25T06:40:17.187Z,63.00
2018-03-25T06:45:19.809Z,63.00
2018-03-25T06:50:23.169Z,64.70
2018-03-25T06:55:25.786Z,64.50
2018-03-25T07:00:35.317Z,66.60
2018-03-25T07:05:37.936Z,69.20
2018-03-25T07:10:40.524Z,71.60
2018-03-25T07:15:43.120Z,72.30
2018-03-25T07:20:46.832Z,71.00
2018-03-25T07:25:49.448Z,71.90
2018-03-25T07:30:52.098Z,72.20
2018-03-25T07:35:55.484Z,69.80
2018-03-25T07:40:58.103Z,69.80
2018-03-25T07:46:01.509Z,68.50
2018-03-25T07:51:04.123Z,68.40
2018-03-25T07:56:07.493Z,64.40
2018-03-25T08:01:10.216Z,64.20
2018-03-25T08:06:12.840Z,62.70
2018-03-25T08:11:16.221Z,63.30
2018-03-25T08:16:18.829Z,63.20
2018-03-25T08:21:21.430Z,61.60
2018-03-25T08:26:25.325Z,58.50
2018-03-25T08:31:27.927Z,58.50
2018-03-25T08:36:30.516Z,58.80
2018-03-25T08:41:33.125Z,55.30
2018-03-25T08:46:35.835Z,55.10
2018-03-25T08:51:38.415Z,52.90
2018-03-25T08:56:41.120Z,46.90
2018-03-25T09:01:43.756Z,38.80
2018-03-25T09:06:46.344Z,39.50
2018-03-25T09:11:49.746Z,42.10
2018-03-25T09:16:52.371Z,41.90
2018-03-25T09:21:55.293Z,38.10
2018-03-25T09:26:58.013Z,33.70
2018-03-25T09:32:00.676Z,29.70
2018-03-25T09:37:03.393Z,29.20
2018-03-25T09:42:06.026Z,28.00
2018-03-25T09:47:08.651Z,29.80
2018-03-25T09:52:11.287Z,32.20
2018-03-25T09:57:14.069Z,36.10
2018-03-25T10:02:18.517Z,37.40
2018-03-25T10:07:21.178Z,39.70
2018-03-25T10:12:23.781Z,39.70
2018-03-25T10:17:26.499Z,38.70
2018-03-25T10:22:29.868Z,38.70
2018-03-25T10:27:32.494Z,38.60
2018-03-25T10:32:35.125Z,37.50
2018-03-25T10:37:37.733Z,38.50
2018-03-25T10:42:40.403Z,37.60
2018-03-25T10:47:43.806Z,39.30
2018-03-25T10:52:47.590Z,38.50
2018-03-25T10:57:50.217Z,38.20
2018-03-25T11:02:53.289Z,38.40
2018-03-25T11:07:55.942Z,37.70
2018-03-25T11:12:59.331Z,38.50
2018-03-25T11:18:01.972Z,38.40
2018-03-25T11:23:04.667Z,38.00
2018-03-25T11:28:07.299Z,37.90
2018-03-25T11:33:10.754Z,37.40
2018-03-25T11:38:14.198Z,38.00
2018-03-25T11:43:16.866Z,37.80
2018-03-25T11:48:20.776Z,38.20
2018-03-25T11:53:23.463Z,36.80
2018-03-25T11:58:26.088Z,36.40
2018-03-25T12:03:28.761Z,36.70
2018-03-25T12:08:31.459Z,36.20
2018-03-25T12:13:34.186Z,36.40
2018-03-25T12:18:36.786Z,36.00
2018-03-25T12:23:39.518Z,36.30
2018-03-25T12:28:42.195Z,34.80
2018-03-25T12:33:44.886Z,33.20
2018-03-25T12:38:47.590Z,33.00
2018-03-25T12:43:50.232Z,32.00
2018-03-25T12:48:52.904Z,31.40
2018-03-25T12:53:55.604Z,32.00
2018-03-25T12:59:00.261Z,32.40
2018-03-25T13:04:02.987Z,32.50
2018-03-25T13:09:05.835Z,31.90
2018-03-25T13:14:09.322Z,31.40
2018-03-25T13:19:12.002Z,31.20
2018-03-25T13:24:14.710Z,30.90
2018-03-25T13:29:17.418Z,30.90
2018-03-25T13:34:20.102Z,30.30
2018-03-25T13:39:22.820Z,30.20
2018-03-25T13:44:25.417Z,30.70
2018-03-25T13:49:28.095Z,29.60
2018-03-25T13:54:30.770Z,30.00
2018-03-25T13:59:33.475Z,29.10
2018-03-25T14:04:36.912Z,29.70
2018-03-25T14:09:39.595Z,28.10
2018-03-25T14:14:42.253Z,27.60
2018-03-25T14:19:45.658Z,28.40
2018-03-25T14:24:48.325Z,28.30
2018-03-25T14:29:51.068Z,28.50
2018-03-25T14:34:53.732Z,28.10
2018-03-25T14:39:56.410Z,28.70
2018-03-25T14:44:59.134Z,28.30
2018-03-25T14:50:01.841Z,28.00
2018-03-25T14:55:04.492Z,28.70
2018-03-25T15:00:30.464Z,28.30
2018-03-25T15:05:33.154Z,28.60
2018-03-25T15:10:35.808Z,27.80
2018-03-25T15:15:39.313Z,26.50
2018-03-25T15:20:41.993Z,26.40
2018-03-25T15:25:45.053Z,26.70
2018-03-25T15:30:47.751Z,25.60
2018-03-25T15:35:50.491Z,26.80
2018-03-25T15:40:54.073Z,27.00
2018-03-25T15:45:56.771Z,27.80
2018-03-25T15:51:04.027Z,27.10
2018-03-25T15:56:06.687Z,27.40
2018-03-25T16:01:09.453Z,27.80
2018-03-25T16:06:12.973Z,28.00
2018-03-25T16:11:16.472Z,27.60
2018-03-25T16:16:19.137Z,27.30
2018-03-25T16:21:21.882Z,27.00
2018-03-25T16:26:24.660Z,27.40
2018-03-25T16:31:27.424Z,27.50
2018-03-25T16:36:30.277Z,27.50
2018-03-25T16:41:33.052Z,27.90
2018-03-25T16:46:35.929Z,27.20
2018-03-25T16:51:39.174Z,27.30
2018-03-25T16:56:41.874Z,27.70
2018-03-25T17:01:44.632Z,28.00
2018-03-25T17:06:47.286Z,27.30
2018-03-25T17:11:49.970Z,27.60
2018-03-25T17:16:52.683Z,28.00
2018-03-25T17:21:55.472Z,28.00
2018-03-25T17:26:58.269Z,28.10
2018-03-25T17:32:01.708Z,29.20
2018-03-25T17:37:04.413Z,29.90
2018-03-25T17:42:08.173Z,29.90
2018-03-25T17:47:12.938Z,30.10
2018-03-25T17:52:15.581Z,30.70
2018-03-25T17:57:18.329Z,31.70
2018-03-25T18:02:21.088Z,31.90
2018-03-25T18:07:23.783Z,32.50
2018-03-25T18:12:26.476Z,32.40
2018-03-25T18:17:34.100Z,33.30
2018-03-25T18:22:31.825Z,33.50
2018-03-25T18:27:34.493Z,34.30
2018-03-25T18:32:37.232Z,34.40
2018-03-25T18:37:40.006Z,35.80
2018-03-25T18:42:43.536Z,35.50
2018-03-25T18:47:46.210Z,35.30
2018-03-25T18:52:48.820Z,35.30
2018-03-25T18:57:52.325Z,35.80
2018-03-25T19:02:54.981Z,35.60
2018-03-25T19:07:57.789Z,38.10
2018-03-25T19:13:00.459Z,37.20
2018-03-25T19:18:03.158Z,37.20
2018-03-25T19:23:05.867Z,37.50
2018-03-25T19:28:08.533Z,37.70
2018-03-25T19:33:11.950Z,37.90
2018-03-25T19:38:15.435Z,37.80
2018-03-25T19:43:18.100Z,37.60
2018-03-25T19:48:20.796Z,38.60
2018-03-25T19:53:23.463Z,39.80
2018-03-25T19:58:26.971Z,40.40
2018-03-25T20:03:29.862Z,40.10
2018-03-25T20:08:32.745Z,40.30
2018-03-25T20:13:35.429Z,40.30
2018-03-25T20:18:39.280Z,40.80
2018-03-25T20:23:42.043Z,41.30
2018-03-25T20:28:44.782Z,41.70
2018-03-25T20:33:47.488Z,41.90
2018-03-25T20:38:50.180Z,42.60
2018-03-25T20:43:52.863Z,42.90
2018-03-25T20:48:55.552Z,42.90
2018-03-25T20:53:58.264Z,43.60
2018-03-25T20:59:01.066Z,43.80
2018-03-25T21:04:03.753Z,43.10
2018-03-25T21:09:06.464Z,42.70
2018-03-25T21:14:09.182Z,42.80
2018-03-25T21:19:11.876Z,42.60
2018-03-25T21:24:14.763Z,43.20
2018-03-25T21:29:17.457Z,43.80
2018-03-25T21:34:20.125Z,43.30
2018-03-25T21:39:23.590Z,41.90
2018-03-25T21:44:26.262Z,41.80
2018-03-25T21:49:28.949Z,41.20
2018-03-25T21:54:31.620Z,41.90
2018-03-25T21:59:36.186Z,42.60
2018-03-25T22:10:07.156Z,43.70
2018-03-25T22:15:09.729Z,44.80
2018-03-25T22:20:12.315Z,45.10
2018-03-25T22:25:14.901Z,46.30
2018-03-25T22:30:17.543Z,44.10
2018-03-25T22:35:20.885Z,45.70
2018-03-25T22:40:23.484Z,45.70
2018-03-25T22:45:26.077Z,47.90
2018-03-25T22:50:29.432Z,48.70
2018-03-25T22:55:32.008Z,48.40
2018-03-25T23:00:35.247Z,46.30
2018-03-25T23:05:37.837Z,45.60
2018-03-25T23:10:40.425Z,47.90
2018-03-25T23:15:43.021Z,49.20
2018-03-25T23:20:45.597Z,50.40
2018-03-25T23:25:48.198Z,50.70
2018-03-25T23:30:50.813Z,51.00
2018-03-25T23:35:53.404Z,50.30
2018-03-25T23:40:56.025Z,48.90
2018-03-25T23:45:58.628Z,49.00
2018-03-25T23:51:01.240Z,50.90
2018-03-25T23:56:17.254Z,51.70
